createdAt,value
2024-03-02T00:01:38.174Z,36.40
2024-03-02T00:04:08.226Z,35.30
2024-03-02T00:06:36.599Z,35.30
2024-03-02T00:09:04.873Z,34.40
2024-03-02T00:11:37.252Z,35.70
2024-03-02T00:14:05.520Z,35.30
2024-03-02T00:16:33.996Z,36.00
2024-03-02T00:19:07.248Z,34.00
2024-03-02T00:21:36.180Z,35.60
2024-03-02T00:24:35.292Z,35.20
2024-03-02T00:27:05.398Z,35.10
2024-03-02T00:29:33.569Z,33.60
2024-03-02T00:32:02.467Z,35.70
2024-03-02T00:34:30.637Z,37.00
2024-03-02T00:37:01.292Z,38.30
2024-03-02T00:39:30.361Z,37.90
2024-03-02T00:41:58.524Z,39.90
2024-03-02T00:44:35.510Z,39.80
2024-03-02T00:47:04.390Z,39.90
2024-03-02T00:49:32.569Z,40.40
2024-03-02T00:52:00.796Z,40.70
2024-03-02T00:54:30.282Z,40.60
2024-03-02T00:56:58.621Z,41.90
2024-03-02T00:59:28.427Z,40.70
2024-03-02T01:01:56.635Z,38.70
2024-03-02T01:04:26.212Z,43.70
2024-03-02T01:06:54.541Z,43.50
2024-03-02T01:09:22.785Z,41.60
2024-03-02T01:11:51.141Z,44.00
2024-03-02T01:14:19.320Z,44.30
2024-03-02T01:16:47.486Z,43.00
2024-03-02T01:19:16.358Z,44.80
2024-03-02T01:21:44.798Z,45.40
2024-03-02T01:24:14.765Z,43.70
2024-03-02T01:26:43.046Z,44.00
2024-03-02T01:29:11.120Z,43.70
2024-03-02T01:31:41.124Z,43.30
2024-03-02T01:34:09.838Z,46.20
2024-03-02T01:36:38.018Z,46.00
2024-03-02T01:39:10.267Z,45.20
2024-03-02T01:41:38.552Z,48.60
2024-03-02T01:44:06.921Z,48.80
2024-03-02T01:46:36.237Z,46.10
2024-03-02T01:49:04.430Z,46.50
2024-03-02T01:51:33.096Z,49.00
2024-03-02T01:54:01.253Z,47.00
2024-03-02T01:56:29.405Z,48.00
2024-03-02T01:58:57.475Z,50.90
2024-03-02T02:01:25.590Z,48.40
2024-03-02T02:03:53.872Z,50.40
2024-03-02T02:06:22.978Z,48.70
2024-03-02T02:08:51.189Z,50.30
2024-03-02T02:11:19.476Z,50.30
2024-03-02T02:13:47.639Z,48.00
2024-03-02T02:16:15.826Z,47.20
2024-03-02T02:18:44.348Z,50.00
2024-03-02T02:21:12.566Z,49.30
2024-03-02T02:23:40.836Z,50.10
2024-03-02T02:26:09.022Z,49.00
2024-03-02T02:28:37.412Z,48.80
2024-03-02T02:31:05.601Z,47.20
2024-03-02T02:33:33.986Z,49.60
2024-03-02T02:36:02.316Z,49.70
2024-03-02T02:38:30.616Z,50.20
2024-03-02T02:40:59.219Z,49.70
2024-03-02T02:43:27.445Z,49.90
2024-03-02T02:45:55.918Z,50.50
2024-03-02T02:48:24.269Z,48.30
2024-03-02T02:50:52.577Z,49.10
2024-03-02T02:53:20.653Z,49.50
2024-03-02T02:55:48.833Z,49.30
2024-03-02T02:58:17.197Z,51.80
2024-03-02T03:00:45.520Z,49.10
2024-03-02T03:03:13.752Z,49.60
2024-03-02T03:05:41.949Z,49.60
2024-03-02T03:08:10.154Z,49.50
2024-03-02T03:10:38.401Z,48.90
2024-03-02T03:13:09.526Z,49.40
2024-03-02T03:15:38.039Z,48.10
2024-03-02T03:18:06.560Z,48.00
2024-03-02T03:20:35.153Z,47.90
2024-03-02T03:23:05.149Z,51.80
2024-03-02T03:25:33.239Z,48.80
2024-03-02T03:28:02.609Z,52.00
2024-03-02T03:30:30.906Z,51.60
2024-03-02T03:32:59.089Z,50.40
2024-03-02T03:35:27.259Z,51.10
2024-03-02T03:37:55.839Z,50.60
2024-03-02T03:40:23.914Z,50.20
2024-03-02T03:42:52.336Z,50.90
2024-03-02T03:45:21.535Z,50.50
2024-03-02T03:47:49.892Z,48.80
2024-03-02T03:50:18.137Z,50.80
2024-03-02T03:52:46.207Z,50.30
2024-03-02T03:55:15.107Z,50.40
2024-03-02T03:57:43.284Z,50.40
2024-03-02T04:00:12.661Z,51.10
2024-03-02T04:02:41.052Z,50.80
2024-03-02T04:05:12.625Z,49.90
2024-03-02T04:07:42.115Z,49.60
2024-03-02T04:10:11.673Z,50.40
2024-03-02T04:12:40.598Z,50.30
2024-03-02T04:15:09.738Z,49.70
2024-03-02T04:17:38.485Z,50.50
2024-03-02T04:20:08.054Z,52.60
2024-03-02T04:22:37.203Z,51.30
2024-03-02T04:25:09.068Z,50.60
2024-03-02T04:27:37.625Z,51.00
2024-03-02T04:30:07.079Z,50.00
2024-03-02T04:32:35.513Z,49.30
2024-03-02T04:35:03.788Z,51.30
2024-03-02T04:37:34.582Z,52.20
2024-03-02T04:40:02.860Z,50.70
2024-03-02T04:42:31.300Z,50.50
2024-03-02T04:44:59.446Z,48.60
2024-03-02T04:47:27.625Z,50.40
2024-03-02T04:49:55.990Z,50.80
2024-03-02T04:52:24.162Z,49.30
2024-03-02T04:55:11.280Z,49.20
2024-03-02T04:57:39.513Z,47.90
2024-03-02T05:00:10.145Z,48.20
2024-03-02T05:02:38.472Z,46.30
2024-03-02T05:05:07.445Z,46.80
2024-03-02T05:07:36.031Z,47.60
2024-03-02T05:10:04.713Z,48.10
2024-03-02T05:12:45.165Z,45.50
2024-03-02T05:15:15.132Z,45.20
2024-03-02T05:17:46.567Z,45.30
2024-03-02T05:20:15.131Z,44.00
2024-03-02T05:22:43.390Z,45.80
2024-03-02T05:25:12.145Z,45.30
2024-03-02T05:27:41.057Z,43.30
2024-03-02T05:30:10.108Z,42.80
2024-03-02T05:32:38.776Z,44.80
2024-03-02T05:35:07.737Z,44.90
2024-03-02T05:37:35.921Z,43.60
2024-03-02T05:40:04.710Z,43.10
2024-03-02T05:42:32.982Z,43.40
2024-03-02T05:45:01.177Z,43.50
2024-03-02T05:47:29.534Z,41.80
2024-03-02T05:49:57.999Z,42.50
2024-03-02T05:52:26.175Z,44.80
2024-03-02T05:54:54.600Z,42.10
2024-03-02T05:57:41.834Z,42.70
2024-03-02T06:00:10.455Z,41.70
2024-03-02T06:02:44.678Z,41.40
2024-03-02T06:05:12.948Z,41.50
2024-03-02T06:07:41.302Z,43.80
2024-03-02T06:10:13.888Z,43.60
2024-03-02T06:12:42.986Z,42.80
2024-03-02T06:15:12.329Z,42.80
2024-03-02T06:17:40.840Z,44.80
2024-03-02T06:20:10.034Z,42.10
2024-03-02T06:22:38.581Z,41.60
2024-03-02T06:25:07.408Z,41.40
2024-03-02T06:27:35.981Z,42.00
2024-03-02T06:30:05.479Z,41.70
2024-03-02T06:32:34.182Z,41.70
2024-03-02T06:35:02.742Z,42.20
2024-03-02T06:37:31.035Z,40.90
2024-03-02T06:39:59.322Z,41.30
2024-03-02T06:42:27.778Z,40.60
2024-03-02T06:44:55.923Z,40.50
2024-03-02T06:47:24.197Z,40.50
2024-03-02T06:49:52.681Z,41.10
2024-03-02T06:52:24.896Z,39.30
2024-03-02T06:54:53.684Z,40.80
2024-03-02T06:57:22.411Z,40.20
2024-03-02T06:59:52.746Z,39.50
2024-03-02T07:02:21.646Z,39.40
2024-03-02T07:04:50.165Z,38.70
2024-03-02T07:07:18.773Z,39.10
2024-03-02T07:09:47.186Z,38.20
2024-03-02T07:12:15.638Z,41.00
2024-03-02T07:15:12.881Z,38.60
2024-03-02T07:17:41.249Z,38.10
2024-03-02T07:20:10.264Z,39.10
2024-03-02T07:22:41.079Z,38.30
2024-03-02T07:26:54.596Z,37.80
2024-03-02T07:27:58.862Z,36.90
2024-03-02T07:30:27.266Z,36.90
2024-03-02T07:32:55.542Z,39.00
2024-03-02T07:35:27.964Z,35.00
2024-03-02T07:37:56.854Z,36.70
2024-03-02T07:40:25.525Z,35.50
2024-03-02T07:42:53.820Z,33.90
2024-03-02T07:45:22.251Z,34.20
2024-03-02T07:47:51.376Z,35.30
2024-03-02T07:50:19.769Z,33.30
2024-03-02T07:52:47.852Z,32.50
2024-03-02T07:55:16.036Z,32.10
2024-03-02T07:57:44.399Z,33.90
2024-03-02T08:00:13.169Z,32.00
2024-03-02T08:02:41.643Z,33.80
2024-03-02T08:05:10.326Z,31.80
2024-03-02T08:07:38.806Z,32.00
2024-03-02T08:10:07.572Z,31.20
2024-03-02T08:12:35.886Z,29.40
2024-03-02T08:15:05.343Z,30.80
2024-03-02T08:17:36.013Z,31.40
2024-03-02T08:20:07.123Z,29.80
2024-03-02T08:22:35.209Z,29.00
2024-03-02T08:25:03.747Z,29.50
2024-03-02T08:27:33.710Z,28.70
2024-03-02T08:30:02.136Z,29.50
2024-03-02T08:32:30.411Z,29.10
2024-03-02T08:34:58.632Z,28.60
2024-03-02T08:37:26.701Z,28.20
2024-03-02T08:39:55.037Z,27.00
2024-03-02T08:42:23.788Z,27.60
2024-03-02T08:44:52.046Z,28.90
2024-03-02T08:47:20.210Z,27.80
2024-03-02T08:49:48.281Z,27.60
2024-03-02T08:52:16.356Z,27.60
2024-03-02T08:54:44.440Z,28.10
2024-03-02T08:57:12.701Z,27.90
2024-03-02T08:59:41.078Z,27.60
2024-03-02T09:02:09.247Z,27.20
2024-03-02T09:04:37.419Z,27.30
2024-03-02T09:07:05.680Z,27.20
2024-03-02T09:09:34.014Z,26.60
2024-03-02T09:12:02.396Z,25.40
2024-03-02T09:14:30.621Z,26.70
2024-03-02T09:16:58.912Z,36.40
2024-03-02T09:19:27.173Z,57.80
2024-03-02T09:21:56.946Z,67.50
2024-03-02T09:24:25.869Z,70.60
2024-03-02T09:26:54.062Z,51.10
2024-03-02T09:29:22.382Z,36.00
2024-03-02T09:31:52.127Z,64.90
2024-03-02T09:34:20.435Z,65.10
2024-03-02T09:36:48.684Z,53.40
2024-03-02T09:39:17.159Z,77.30
2024-03-02T09:41:45.533Z,63.20
2024-03-02T09:44:13.913Z,43.40
2024-03-02T09:46:45.326Z,33.80
2024-03-02T09:49:14.149Z,28.20
2024-03-02T09:51:48.540Z,29.70
2024-03-02T09:54:22.232Z,29.50
2024-03-02T09:56:52.541Z,29.20
2024-03-02T09:59:22.028Z,28.80
2024-03-02T10:02:01.268Z,28.50
2024-03-02T10:04:32.307Z,27.10
2024-03-02T10:07:20.010Z,28.20
2024-03-02T10:09:53.326Z,25.50
2024-03-02T10:12:22.313Z,25.90
2024-03-02T10:14:52.929Z,27.40
2024-03-02T10:17:21.090Z,25.70
2024-03-02T10:19:49.258Z,25.70
2024-03-02T10:22:17.436Z,25.00
2024-03-02T10:24:47.058Z,23.50
2024-03-02T10:27:24.160Z,23.70
2024-03-02T10:29:52.491Z,23.40
2024-03-02T10:32:23.946Z,24.20
2024-03-02T10:34:52.127Z,23.40
2024-03-02T10:37:23.069Z,22.90
2024-03-02T10:39:51.360Z,25.40
2024-03-02T10:42:20.691Z,22.50
2024-03-02T10:44:50.040Z,21.90
2024-03-02T10:47:20.761Z,23.30
2024-03-02T10:49:53.056Z,23.50
2024-03-02T10:52:21.199Z,24.80
2024-03-02T10:54:49.717Z,21.80
2024-03-02T10:57:18.471Z,20.80
2024-03-02T10:59:58.761Z,21.00
2024-03-02T11:02:29.043Z,20.40
2024-03-02T11:07:26.532Z,19.00
2024-03-02T11:10:10.205Z,20.90
2024-03-02T11:13:03.411Z,19.70
2024-03-02T11:15:31.931Z,20.60
2024-03-02T11:18:00.498Z,19.70
2024-03-02T11:20:30.162Z,20.50
2024-03-02T11:22:58.256Z,17.80
2024-03-02T11:25:29.614Z,19.70
2024-03-02T11:27:57.754Z,17.90
2024-03-02T11:30:36.121Z,17.20
2024-03-02T11:33:13.397Z,16.80
2024-03-02T11:35:49.661Z,16.90
2024-03-02T11:38:19.745Z,17.10
2024-03-02T11:40:48.175Z,15.50
2024-03-02T11:43:16.713Z,16.00
2024-03-02T11:45:45.848Z,17.20
2024-03-02T11:48:17.765Z,17.30
2024-03-02T11:50:51.839Z,18.30
2024-03-02T11:53:21.797Z,17.50
2024-03-02T11:55:50.770Z,17.50
2024-03-02T11:58:25.090Z,17.00
2024-03-02T12:00:54.077Z,16.70
2024-03-02T12:03:27.267Z,17.20
2024-03-02T12:05:56.731Z,15.90
2024-03-02T12:08:25.897Z,15.90
2024-03-02T12:11:02.712Z,16.00
2024-03-02T12:13:32.481Z,15.70
2024-03-02T12:16:01.144Z,15.90
2024-03-02T12:18:29.773Z,15.90
2024-03-02T12:20:59.999Z,16.00
2024-03-02T12:23:28.879Z,16.90
2024-03-02T12:25:57.833Z,17.10
2024-03-02T12:28:26.416Z,16.10
2024-03-02T12:30:54.903Z,16.80
2024-03-02T12:33:24.301Z,16.10
2024-03-02T12:35:52.607Z,16.30
2024-03-02T12:38:21.175Z,18.80
2024-03-02T12:40:50.982Z,18.30
2024-03-02T12:43:19.539Z,17.50
2024-03-02T12:45:48.194Z,17.20
2024-03-02T12:48:16.611Z,18.10
2024-03-02T12:50:45.664Z,17.60
2024-03-02T12:53:17.983Z,18.40
2024-03-02T12:55:46.461Z,17.70
2024-03-02T12:58:20.009Z,17.20
2024-03-02T13:00:48.724Z,16.20
2024-03-02T13:03:21.162Z,15.90
2024-03-02T13:05:51.272Z,15.00
2024-03-02T13:10:47.824Z,15.50
2024-03-02T13:13:16.265Z,17.60
2024-03-02T13:15:46.441Z,16.50
2024-03-02T13:18:14.900Z,16.50
2024-03-02T13:20:43.124Z,16.40
2024-03-02T13:23:11.605Z,17.00
2024-03-02T13:25:39.778Z,17.70
2024-03-02T13:28:08.844Z,16.90
2024-03-02T13:30:37.268Z,17.90
2024-03-02T13:33:06.042Z,18.30
2024-03-02T13:35:34.212Z,19.80
2024-03-02T13:38:02.587Z,20.80
2024-03-02T13:40:32.090Z,19.80
2024-03-02T13:43:00.290Z,19.10
2024-03-02T13:45:29.289Z,27.30
2024-03-02T13:47:57.636Z,33.60
2024-03-02T13:50:25.802Z,22.70
2024-03-02T13:52:53.880Z,20.20
2024-03-02T13:55:22.043Z,21.10
2024-03-02T13:57:51.453Z,20.20
2024-03-02T14:00:20.336Z,20.30
2024-03-02T14:02:51.071Z,18.60
2024-03-02T14:05:20.668Z,19.30
2024-03-02T14:07:48.745Z,18.30
2024-03-02T14:10:17.267Z,20.30
2024-03-02T14:12:45.535Z,27.90
2024-03-02T14:15:13.772Z,61.70
2024-03-02T14:17:42.070Z,29.00
2024-03-02T14:20:14.738Z,84.60
2024-03-02T14:22:42.898Z,28.60
2024-03-02T14:25:11.302Z,28.80
2024-03-02T14:30:12.846Z,17.30
2024-03-02T14:32:41.037Z,18.10
2024-03-02T14:35:12.819Z,16.80
2024-03-02T14:37:41.151Z,16.70
2024-03-02T14:40:11.092Z,16.60
2024-03-02T14:42:39.472Z,16.00
2024-03-02T14:45:07.816Z,16.20
2024-03-02T14:47:36.785Z,16.80
2024-03-02T14:50:07.552Z,15.00
2024-03-02T14:52:35.814Z,15.60
2024-03-02T14:55:05.540Z,15.40
2024-03-02T14:57:33.725Z,14.90
2024-03-02T15:00:01.971Z,13.60
2024-03-02T15:02:30.357Z,14.00
2024-03-02T15:04:58.734Z,15.70
2024-03-02T15:07:27.214Z,14.80
2024-03-02T15:09:56.340Z,15.10
2024-03-02T15:12:24.969Z,16.30
2024-03-02T15:14:53.160Z,16.00
2024-03-02T15:17:21.435Z,18.50
2024-03-02T15:19:49.616Z,16.80
2024-03-02T15:22:18.399Z,16.50
2024-03-02T15:24:46.602Z,17.40
2024-03-02T15:27:14.747Z,17.30
2024-03-02T15:29:42.921Z,18.20
2024-03-02T15:32:11.286Z,18.60
2024-03-02T15:34:39.638Z,18.50
2024-03-02T15:37:07.943Z,19.40
2024-03-02T15:39:36.286Z,18.90
2024-03-02T15:42:06.160Z,18.60
2024-03-02T15:44:34.414Z,19.30
2024-03-02T15:47:02.881Z,20.40
2024-03-02T15:49:33.305Z,19.60
2024-03-02T15:52:04.873Z,18.70
2024-03-02T15:54:33.256Z,17.10
2024-03-02T15:57:01.613Z,18.50
2024-03-02T15:59:29.786Z,17.80
2024-03-02T16:01:59.805Z,18.20
2024-03-02T16:04:28.082Z,18.00
2024-03-02T16:06:56.385Z,18.50
2024-03-02T16:09:24.672Z,17.20
2024-03-02T16:11:53.415Z,18.50
2024-03-02T16:14:21.720Z,18.10
2024-03-02T16:16:49.860Z,17.20
2024-03-02T16:19:25.764Z,17.50
2024-03-02T16:22:01.146Z,17.80
2024-03-02T16:24:29.593Z,17.40
2024-03-02T16:26:58.326Z,17.00
2024-03-02T16:29:26.499Z,17.90
2024-03-02T16:31:54.673Z,17.20
2024-03-02T16:34:22.978Z,17.80
2024-03-02T16:36:51.273Z,17.80
2024-03-02T16:39:19.591Z,19.20
2024-03-02T16:41:48.438Z,20.00
2024-03-02T16:44:16.964Z,20.20
2024-03-02T16:46:46.688Z,21.90
2024-03-02T16:49:15.083Z,21.30
2024-03-02T16:51:44.346Z,19.90
2024-03-02T16:54:12.619Z,20.30
2024-03-02T16:56:44.402Z,19.50
2024-03-02T16:59:12.666Z,19.40
2024-03-02T17:01:41.177Z,21.20
2024-03-02T17:04:09.658Z,25.30
2024-03-02T17:06:38.042Z,26.10
2024-03-02T17:09:06.777Z,26.90
2024-03-02T17:11:36.537Z,25.70
2024-03-02T17:14:05.081Z,26.30
2024-03-02T17:16:33.138Z,24.30
2024-03-02T17:19:01.831Z,29.10
2024-03-02T17:21:30.514Z,27.70
2024-03-02T17:23:59.663Z,28.60
2024-03-02T17:26:27.982Z,29.10
2024-03-02T17:28:56.264Z,27.00
2024-03-02T17:31:24.428Z,25.70
2024-03-02T17:33:52.721Z,24.50
2024-03-02T17:36:20.975Z,22.40
2024-03-02T17:38:49.263Z,22.20
2024-03-02T17:41:17.625Z,23.00
2024-03-02T17:43:45.900Z,22.00
2024-03-02T17:46:14.158Z,20.50
2024-03-02T17:48:42.891Z,21.10
2024-03-02T17:51:11.336Z,21.40
2024-03-02T17:53:39.620Z,20.90
2024-03-02T17:56:10.964Z,22.50
2024-03-02T17:58:39.574Z,20.50
2024-03-02T18:01:07.885Z,21.60
2024-03-02T18:03:36.495Z,21.10
2024-03-02T18:06:05.870Z,21.10
2024-03-02T18:08:36.056Z,21.10
2024-03-02T18:11:08.018Z,22.30
2024-03-02T18:16:06.035Z,22.40
2024-03-02T18:18:34.326Z,21.80
2024-03-02T18:21:03.859Z,22.70
2024-03-02T18:23:32.545Z,23.20
2024-03-02T18:26:01.133Z,24.00
2024-03-02T18:28:29.354Z,22.60
2024-03-02T18:30:59.757Z,23.20
2024-03-02T18:35:56.774Z,23.20
2024-03-02T18:38:24.952Z,23.00
2024-03-02T18:40:53.118Z,24.30
2024-03-02T18:43:21.498Z,23.40
2024-03-02T18:45:49.822Z,23.80
2024-03-02T18:48:18.092Z,23.40
2024-03-02T18:50:46.318Z,24.60
2024-03-02T18:53:14.804Z,23.00
2024-03-02T18:55:42.972Z,23.90
2024-03-02T18:58:11.073Z,23.50
2024-03-02T19:00:39.767Z,22.10
2024-03-02T19:03:11.002Z,23.00
2024-03-02T19:05:39.765Z,22.40
2024-03-02T19:08:09.354Z,22.60
2024-03-02T19:10:37.659Z,23.00
2024-03-02T19:13:07.310Z,21.80
2024-03-02T19:15:35.681Z,22.10
2024-03-02T19:18:04.612Z,23.70
2024-03-02T19:20:33.099Z,22.80
2024-03-02T19:23:01.711Z,22.20
2024-03-02T19:25:29.974Z,22.10
2024-03-02T19:27:58.465Z,21.50
2024-03-02T19:30:27.218Z,22.40
2024-03-02T19:32:55.645Z,21.10
2024-03-02T19:35:23.875Z,22.00
2024-03-02T19:37:53.272Z,22.30
2024-03-02T19:40:21.442Z,22.80
2024-03-02T19:42:49.674Z,21.50
2024-03-02T19:45:18.046Z,22.80
2024-03-02T19:47:46.170Z,23.90
2024-03-02T19:50:15.531Z,22.10
2024-03-02T19:52:43.848Z,22.20
2024-03-02T19:55:14.172Z,22.20
2024-03-02T19:57:46.115Z,22.20
2024-03-02T20:00:15.807Z,23.20
2024-03-02T20:02:44.030Z,23.10
2024-03-02T20:05:13.438Z,23.20
2024-03-02T20:07:42.749Z,24.60
2024-03-02T20:10:12.624Z,24.60
2024-03-02T20:12:41.101Z,23.90
2024-03-02T20:15:21.068Z,24.00
2024-03-02T20:17:49.374Z,24.80
2024-03-02T20:20:18.011Z,22.50
2024-03-02T20:22:47.205Z,25.70
2024-03-02T20:25:17.110Z,24.90
2024-03-02T20:27:46.479Z,24.90
2024-03-02T20:30:15.119Z,25.00
2024-03-02T20:32:43.836Z,24.90
2024-03-02T20:35:12.786Z,25.50
2024-03-02T20:37:41.369Z,24.80
2024-03-02T20:40:10.384Z,25.40
2024-03-02T20:42:39.316Z,24.50
2024-03-02T20:45:08.661Z,24.10
2024-03-02T20:47:36.830Z,22.70
2024-03-02T20:50:05.637Z,25.70
2024-03-02T20:52:33.987Z,24.00
2024-03-02T20:55:02.134Z,23.70
2024-03-02T20:57:30.534Z,24.50
2024-03-02T20:59:58.816Z,23.10
2024-03-02T21:02:27.551Z,23.20
2024-03-02T21:04:55.888Z,24.20
2024-03-02T21:07:24.072Z,23.30
2024-03-02T21:09:53.978Z,23.20
2024-03-02T21:12:22.344Z,23.10
2024-03-02T21:14:50.608Z,23.80
2024-03-02T21:17:18.775Z,24.30
2024-03-02T21:19:48.487Z,24.30
2024-03-02T21:22:16.988Z,24.50
2024-03-02T21:24:47.348Z,23.70
2024-03-02T21:27:18.519Z,23.20
2024-03-02T21:29:48.303Z,23.80
2024-03-02T21:32:16.628Z,22.70
2024-03-02T21:34:44.800Z,22.90
2024-03-02T21:37:13.152Z,23.00
2024-03-02T21:39:47.022Z,22.40
2024-03-02T21:42:15.965Z,22.00
2024-03-02T21:44:44.448Z,21.00
2024-03-02T21:47:13.852Z,22.00
2024-03-02T21:49:42.027Z,20.00
2024-03-02T21:52:10.640Z,20.20
2024-03-02T21:54:38.899Z,21.20
2024-03-02T21:57:10.637Z,20.30
2024-03-02T21:59:40.547Z,20.10
2024-03-02T22:02:08.902Z,19.00
2024-03-02T22:04:37.511Z,18.80
2024-03-02T22:07:05.808Z,19.60
2024-03-02T22:09:35.562Z,19.20
2024-03-02T22:12:04.018Z,20.20
2024-03-02T22:14:32.248Z,18.60
2024-03-02T22:17:00.549Z,19.00
2024-03-02T22:19:28.911Z,18.80
2024-03-02T22:21:57.204Z,19.50
2024-03-02T22:24:26.265Z,19.90
2024-03-02T22:26:54.451Z,19.60
2024-03-02T22:29:22.612Z,19.00
2024-03-02T22:31:50.992Z,19.90
2024-03-02T22:34:19.400Z,19.80
2024-03-02T22:36:47.655Z,18.90
2024-03-02T22:39:15.814Z,18.40
2024-03-02T22:41:44.396Z,19.80
2024-03-02T22:44:12.676Z,18.80
2024-03-02T22:46:40.841Z,19.30
2024-03-02T22:49:09.038Z,20.10
2024-03-02T22:51:37.256Z,20.60
2024-03-02T22:54:05.469Z,20.30
2024-03-02T22:56:33.745Z,19.50
2024-03-02T22:59:02.339Z,19.20
2024-03-02T23:01:30.630Z,18.20
2024-03-02T23:03:58.787Z,18.70
2024-03-02T23:06:27.866Z,17.90
2024-03-02T23:08:56.034Z,17.50
2024-03-02T23:11:24.439Z,16.70
2024-03-02T23:13:52.698Z,17.40
2024-03-02T23:16:20.888Z,16.70
2024-03-02T23:18:50.157Z,16.90
2024-03-02T23:21:18.442Z,17.20
2024-03-02T23:23:46.605Z,16.00
2024-03-02T23:26:14.791Z,17.50
2024-03-02T23:28:42.954Z,16.40
2024-03-02T23:31:11.201Z,17.70
2024-03-02T23:33:40.078Z,18.00
2024-03-02T23:36:08.286Z,19.00
2024-03-02T23:38:36.366Z,17.00
2024-03-02T23:41:16.220Z,17.10
2024-03-02T23:43:44.387Z,15.20
2024-03-02T23:46:12.900Z,14.40
2024-03-02T23:48:41.267Z,14.80
2024-03-02T23:51:09.510Z,15.20
2024-03-02T23:53:37.684Z,15.40
2024-03-02T23:56:13.740Z,14.60
2024-03-02T23:58:42.225Z,15.20
